ADDS TAF Board (Experimental) INFO Settings
IDs: Format: Expanded Condensed

KMDW - Chicago/Midway Intl, IL, US

Issued at 2323 UTC 03 Sep 2015
Updated at: 2324 UTC 03 Sep 2015
Time2253Z 04/00Z 04/01Z 04/02Z 04/03Z 04/04Z 04/05Z 04/06Z 04/07Z 04/08Z 04/09Z 04/10Z 04/11Z 04/12Z
Type OBS PRVL
  [TEMP]  
PRVL
  [TEMP]  
PRVL PRVL PRVL PRVL PRVL PRVL PRVL PRVL PRVL PRVL PRVL
VIS 10 >6 >6 6 6 6 6 6 5 5 5 5 5 5
CIG 55 250
  [250]  
250
  [250]  
-- -- -- -- -- -- -- -- -- -- --
Cover BKN BKN
  [BKN]  
BKN
  [BKN]  
SCT SCT SCT SCT SCT SCT SCT SCT SCT SCT SCT
FltCat VFR VFR
  [VFR]  
VFR
  [VFR]  
VFR VFR VFR VFR VFR MVFR MVFR MVFR MVFR MVFR MVFR
WX -- VCTS
  [--]  
VCTS
  [--]  
BR BR BR BR BR BR BR BR BR BR BR
WDir 280 40
[40]
40
[40]
30 30 30 30 30 VRB VRB VRB VRB VRB VRB
WSpd 9 8
  [10]  
8
  [10]  
5 5 5 5 5 3 3 3 3 3 3
WGst -- --
  [15]  
--
  [15]  
-- -- -- -- -- -- -- -- -- -- --
R04/22
XWnd 8 0 0 1 1 1 1 1 VRB VRB VRB VRB VRB VRB
XGst -- 0 0 -- -- -- -- -- -- -- -- -- -- --
HWnd -5 8 8 5 5 5 5 5 VRB VRB VRB VRB VRB VRB
HGst -- 0 0 -- -- -- -- -- -- -- -- -- -- --
R13/31
XWnd -5 8 8 5 5 5 5 5 VRB VRB VRB VRB VRB VRB
XGst -- 0 0 -- -- -- -- -- -- -- -- -- -- --
HWnd -7 -1 -1 -1 -1 -1 -1 -1 VRB VRB VRB VRB VRB VRB
HGst -- 0 0 -- -- -- -- -- -- -- -- -- -- --

NOTE: TEMPO conditions in [brackets]. Keep in mind TEMPO conditions might be better (lower impact) than prevailing conditions.

Raw TAF
KMDW 032323Z 0400/0424 04008KT P6SM VCTS SCT030 SCT050CB BKN250
  TEMPO 0400/0402 04010G15KT
  FM040200 03005KT 6SM BR SCT040
  FM040700 VRB03KT 5SM BR SCT030
  FM041400 VRB03KT P6SM SCT040
  FM042200 09004KT P6SM SCT050
  PROB30 0422/0424 -TSRA SCT040CB


Raw METAR
KMDW 032253Z 28009KT 10SM BKN055 33/20 A2988 RMK AO2 SLP105 T03280200 $
KMDW 032153Z 26012KT 10SM SCT060 SCT100 33/19 A2987 RMK AO2 SLP103 T03330194 $
KMDW 032053Z 24008G17KT 10SM SCT055 SCT100 33/19 A2988 RMK AO2 SLP105 T03330194 56017 $

METAR Board
Radar Display
Forecast Discussion

TAF Board Legend

Potential Impact
Threat None Slight Moderate High
Visibility (sm) ≥5.1 5.1>X≥3 3>X≥1 <1
Ceiling (100 ft) ≥30.1 30.1>X≥10 10>X≥5 <5
Wind Speed (kt) <10 10≤X<20 20≤X<30 ≥30
Wind Gust (kt) <15 15≤X<25 25≤X<35 ≥35
Weather No Wx Reported VCTS,-TS,-FZRA,SN TS,FZRA +TS,+FZRA,+SN